Historique des mesures à Cassis (13260), France
Quotidien Résumé Fevrier 12, 2018 Unités:  Métrique/US    US   Métrique
« Précédent (Jour)
Suivant (Jour) »
Quotidien Hebdomadaire Mensuel Annuel Période au choix
  Maximum: Minimum: Moyenne:
Température: 32 °F /  TemperatureC °C 40.1 °F /  4.5 °C 45.3 °F /  7.4 °C
Point de rosée: 32 °F /  DewpointC °C 23 °F /  -5.0 °C 28.4 °F /  -2 °C
Humidité: Humidity % 40 % 49 %
Vitesse du vent: WindSpeedKMH mph /  0 km/h - 17 mph /  27.4 km/h
Rafales: WindSpeedGustKMH mph /  0 km/h - -
Vent:- - SW
Pression: 0 in /  PressurehPa hPa 29.7 in /  1007.0 hPa -
Précipitations: 0 in /  0.0 mm    
Historical Graphs
 
 
Mesures pour : Fevrier 12, 2018
Heure Temperature Point de rosée Pression Vent Vitesse du vent Rafales Humidité Pluie (par heure) Conditions
32 °F /  TemperatureC °C 32 °F /  DewpointC °C 0 in /  PressurehPa hPa Calm     Humidity % 0 in /  HourlyPrecipMM mm SoftwareType W/m2
00:12 50.2 °F /  10.1 °C 34.5 °F /  1.4 °C 29.7 in /  1007.3 hPa WNW 14.8 mph /  23.8 km/h 17.7 mph /  28.5 km/h 55 % 0 in /  0.0 mm open2300-1.11 W/m2
01:12 49.5 °F /  9.7 °C 34.3 °F /  1.3 °C 29.7 in /  1007.0 hPa NW 24.8 mph /  39.9 km/h 40.2 mph /  64.7 km/h 56 % 0 in /  0.0 mm open2300-1.11 W/m2
02:12 48.6 °F /  9.2 °C 34 °F /  1.1 °C 29.7 in /  1007.0 hPa NW 15.4 mph /  24.8 km/h 33.5 mph /  53.9 km/h 57 % 0 in /  0.0 mm open2300-1.11 W/m2
03:12 48 °F /  8.9 °C 33.4 °F /  0.8 °C 29.8 in /  1007.7 hPa NNW 17.7 mph /  28.5 km/h 19.8 mph /  31.9 km/h 57 % 0 in /  0.0 mm open2300-1.11 W/m2
04:12 48.4 °F /  9.1 °C 32.4 °F /  0.2 °C 29.7 in /  1007.3 hPa NW 21.6 mph /  34.8 km/h 21.6 mph /  34.8 km/h 54 % 0 in /  0.0 mm open2300-1.11 W/m2
05:12 48 °F /  8.9 °C 32.2 °F /  0.1 °C 29.8 in /  1007.7 hPa North 25.3 mph /  40.7 km/h 25.3 mph /  40.7 km/h 54 % 0 in /  0.0 mm open2300-1.11 W/m2
06:12 46 °F /  7.8 °C 32.9 °F /  0.5 °C 29.8 in /  1007.7 hPa WNW 9.3 mph /  15 km/h 16.9 mph /  27.2 km/h 60 % 0 in /  0.0 mm open2300-1.11 W/m2
07:12 45.5 °F /  7.5 °C 31.1 °F /  -0.5 °C 29.8 in /  1008.4 hPa WNW 22.7 mph /  36.5 km/h 22.7 mph /  36.5 km/h 57 % 0 in /  0.0 mm open2300-1.11 W/m2
08:12 43.5 °F /  6.4 °C 30.6 °F /  -0.8 °C 29.8 in /  1009.4 hPa WNW 15.8 mph /  25.4 km/h 19.5 mph /  31.4 km/h 60 % 0 in /  0.0 mm open2300-1.11 W/m2
09:12 44.4 °F /  6.9 °C 30.6 °F /  -0.8 °C 29.8 in /  1009.7 hPa WNW 16.6 mph /  26.7 km/h 24.1 mph /  38.8 km/h 58 % 0 in /  0.0 mm open2300-1.11 W/m2
10:12 45.7 °F /  7.6 °C 29.8 °F /  -1.2 °C 29.8 in /  1009.7 hPa North 23.8 mph /  38.3 km/h 48.3 mph /  77.7 km/h 54 % 0 in /  0.0 mm open2300-1.11 W/m2
11:12 47.5 °F /  8.6 °C 27.7 °F /  -2.4 °C 29.8 in /  1010.0 hPa North 15.8 mph /  25.4 km/h 30.6 mph /  49.2 km/h 46 % 0 in /  0.0 mm open2300-1.11 W/m2
12:12 47.7 °F /  8.7 °C 27.7 °F /  -2.4 °C 29.8 in /  1010.0 hPa North 23.0 mph /  37 km/h 23.0 mph /  37 km/h 46 % 0 in /  0.0 mm open2300-1.11 W/m2
13:12 47.5 °F /  8.6 °C 27 °F /  -2.8 °C 29.8 in /  1009.4 hPa NNW 14.8 mph /  23.8 km/h 24.1 mph /  38.8 km/h 45 % 0 in /  0.0 mm open2300-1.11 W/m2
14:12 47.8 °F /  8.8 °C 25.7 °F /  -3.5 °C 29.8 in /  1008.7 hPa NW 17.7 mph /  28.5 km/h 27.7 mph /  44.6 km/h 42 % 0 in /  0.0 mm open2300-1.11 W/m2
15:12 47.8 °F /  8.8 °C 24.6 °F /  -4.1 °C 29.8 in /  1008.7 hPa NNW 26.5 mph /  42.6 km/h 28.8 mph /  46.3 km/h 40 % 0 in /  0.0 mm open2300-1.11 W/m2
16:12 47.1 °F /  8.4 °C 24.4 °F /  -4.2 °C 29.8 in /  1008.4 hPa NW 12.6 mph /  20.3 km/h 17.7 mph /  28.5 km/h 41 % 0 in /  0.0 mm open2300-1.11 W/m2
17:12 46 °F /  7.8 °C 24.1 °F /  -4.4 °C 29.8 in /  1008.4 hPa NNE 8.2 mph /  13.2 km/h 29.9 mph /  48.1 km/h 42 % 0 in /  0.0 mm open2300-1.11 W/m2
18:12 44.2 °F /  6.8 °C 23 °F /  -5.0 °C 29.8 in /  1008.4 hPa WNW 30.6 mph /  49.2 km/h 37.8 mph /  60.8 km/h 43 % 0 in /  0.0 mm open2300-1.11 W/m2
19:12 43 °F /  6.1 °C 23.5 °F /  -4.7 °C 29.8 in /  1008.4 hPa NNW 17.7 mph /  28.5 km/h 39.6 mph /  63.7 km/h 46 % 0 in /  0.0 mm open2300-1.11 W/m2
20:12 41.9 °F /  5.5 °C 23.5 °F /  -4.7 °C 29.8 in /  1009.0 hPa NW 23.8 mph /  38.3 km/h 23.8 mph /  38.3 km/h 48 % 0 in /  0.0 mm open2300-1.11 W/m2
21:12 41.4 °F /  5.2 °C 24.1 °F /  -4.4 °C 29.8 in /  1009.7 hPa NNE 10.1 mph /  16.3 km/h 24.1 mph /  38.8 km/h 50 % 0 in /  0.0 mm open2300-1.11 W/m2
22:12 40.6 °F /  4.8 °C 24.3 °F /  -4.3 °C 29.8 in /  1010.0 hPa North 5.8 mph /  9.3 km/h 14.8 mph /  23.8 km/h 52 % 0 in /  0.0 mm open2300-1.11 W/m2
23:12 40.1 °F /  4.5 °C 24.3 °F /  -4.3 °C 29.8 in /  1009.7 hPa NW 11.1 mph /  17.9 km/h 16.6 mph /  26.7 km/h 53 % 0 in /  0.0 mm open2300-1.11 W/m2
Observations météo à CASSIS
WU-History script by Weather Underground - 1 mb